sensor_id;sensor_type;location;lat;lon;timestamp;temperature;humidity
44833;DHT22;30569;51.252;9.830;2024-02-16T00:03:23;12.40;99.90
44833;DHT22;30569;51.252;9.830;2024-02-16T00:05:49;12.40;99.90
44833;DHT22;30569;51.252;9.830;2024-02-16T00:08:17;12.30;99.90
44833;DHT22;30569;51.252;9.830;2024-02-16T00:10:43;12.20;99.90
44833;DHT22;30569;51.252;9.830;2024-02-16T00:13:08;12.20;99.90
44833;DHT22;30569;51.252;9.830;2024-02-16T00:15:34;12.50;99.90
44833;DHT22;30569;51.252;9.830;2024-02-16T00:18:00;12.20;99.90
44833;DHT22;30569;51.252;9.830;2024-02-16T00:20:25;12.30;99.90
44833;DHT22;30569;51.252;9.830;2024-02-16T00:22:51;12.40;99.90
44833;DHT22;30569;51.252;9.830;2024-02-16T00:25:16;12.20;99.90
44833;DHT22;30569;51.252;9.830;2024-02-16T00:27:43;12.30;99.90
44833;DHT22;30569;51.252;9.830;2024-02-16T00:30:09;12.40;99.90
44833;DHT22;30569;51.252;9.830;2024-02-16T00:32:35;12.40;99.90
44833;DHT22;30569;51.252;9.830;2024-02-16T00:35:02;12.30;99.90
44833;DHT22;30569;51.252;9.830;2024-02-16T00:37:28;12.20;99.90
44833;DHT22;30569;51.252;9.830;2024-02-16T00:39:54;12.30;99.90
44833;DHT22;30569;51.252;9.830;2024-02-16T00:42:20;12.30;99.90
44833;DHT22;30569;51.252;9.830;2024-02-16T00:44:48;12.30;99.90
44833;DHT22;30569;51.252;9.830;2024-02-16T00:47:14;12.10;99.90
44833;DHT22;30569;51.252;9.830;2024-02-16T00:49:42;12.20;99.90
44833;DHT22;30569;51.252;9.830;2024-02-16T00:52:08;12.10;99.90
44833;DHT22;30569;51.252;9.830;2024-02-16T00:57:01;12.10;99.90
44833;DHT22;30569;51.252;9.830;2024-02-16T00:59:28;11.90;99.90
44833;DHT22;30569;51.252;9.830;2024-02-16T01:01:54;11.80;99.90
44833;DHT22;30569;51.252;9.830;2024-02-16T01:04:20;11.90;99.90
44833;DHT22;30569;51.252;9.830;2024-02-16T01:06:45;11.70;99.90
44833;DHT22;30569;51.252;9.830;2024-02-16T01:09:11;11.90;99.90
44833;DHT22;30569;51.252;9.830;2024-02-16T01:11:41;11.90;99.90
44833;DHT22;30569;51.252;9.830;2024-02-16T01:14:06;11.80;99.90
44833;DHT22;30569;51.252;9.830;2024-02-16T01:16:32;11.90;99.90
44833;DHT22;30569;51.252;9.830;2024-02-16T01:18:58;11.90;99.90
44833;DHT22;30569;51.252;9.830;2024-02-16T01:21:23;11.70;99.90
44833;DHT22;30569;51.252;9.830;2024-02-16T01:23:49;11.70;99.90
44833;DHT22;30569;51.252;9.830;2024-02-16T01:26:15;11.70;99.90
44833;DHT22;30569;51.252;9.830;2024-02-16T01:28:40;11.60;99.90
44833;DHT22;30569;51.252;9.830;2024-02-16T01:31:06;11.50;99.90
44833;DHT22;30569;51.252;9.830;2024-02-16T01:33:32;11.60;99.90
44833;DHT22;30569;51.252;9.830;2024-02-16T01:40:52;11.60;99.90
44833;DHT22;30569;51.252;9.830;2024-02-16T01:43:21;11.60;99.90
44833;DHT22;30569;51.252;9.830;2024-02-16T01:48:14;11.70;99.90
44833;DHT22;30569;51.252;9.830;2024-02-16T01:50:42;11.60;99.90
44833;DHT22;30569;51.252;9.830;2024-02-16T01:53:08;11.60;99.90
44833;DHT22;30569;51.252;9.830;2024-02-16T01:55:34;11.40;99.90
44833;DHT22;30569;51.252;9.830;2024-02-16T01:58:00;11.50;99.90
44833;DHT22;30569;51.252;9.830;2024-02-16T02:00:26;11.60;99.90
44833;DHT22;30569;51.252;9.830;2024-02-16T02:02:52;11.50;99.90
44833;DHT22;30569;51.252;9.830;2024-02-16T02:05:17;11.30;99.90
44833;DHT22;30569;51.252;9.830;2024-02-16T02:07:43;11.50;99.90
44833;DHT22;30569;51.252;9.830;2024-02-16T02:10:09;11.90;99.90
44833;DHT22;30569;51.252;9.830;2024-02-16T02:12:37;11.90;99.90
44833;DHT22;30569;51.252;9.830;2024-02-16T02:15:04;12.10;99.90
44833;DHT22;30569;51.252;9.830;2024-02-16T02:17:30;12.20;99.90
44833;DHT22;30569;51.252;9.830;2024-02-16T02:19:55;12.30;99.90
44833;DHT22;30569;51.252;9.830;2024-02-16T02:22:21;12.30;99.90
44833;DHT22;30569;51.252;9.830;2024-02-16T02:24:48;12.30;99.90
44833;DHT22;30569;51.252;9.830;2024-02-16T02:27:15;12.30;99.90
44833;DHT22;30569;51.252;9.830;2024-02-16T02:29:41;12.20;99.90
44833;DHT22;30569;51.252;9.830;2024-02-16T02:32:07;12.40;99.90
44833;DHT22;30569;51.252;9.830;2024-02-16T02:34:33;12.20;99.90
44833;DHT22;30569;51.252;9.830;2024-02-16T02:36:59;12.30;99.90
44833;DHT22;30569;51.252;9.830;2024-02-16T02:39:25;12.50;99.90
44833;DHT22;30569;51.252;9.830;2024-02-16T02:41:50;12.30;99.90
44833;DHT22;30569;51.252;9.830;2024-02-16T02:44:16;12.40;99.90
44833;DHT22;30569;51.252;9.830;2024-02-16T02:46:41;12.40;99.90
44833;DHT22;30569;51.252;9.830;2024-02-16T02:49:07;12.50;99.90
44833;DHT22;30569;51.252;9.830;2024-02-16T02:51:33;12.50;99.90
44833;DHT22;30569;51.252;9.830;2024-02-16T02:53:59;12.60;99.90
44833;DHT22;30569;51.252;9.830;2024-02-16T02:56:24;12.60;99.90
44833;DHT22;30569;51.252;9.830;2024-02-16T02:58:50;12.70;99.90
44833;DHT22;30569;51.252;9.830;2024-02-16T03:01:16;12.60;99.90
44833;DHT22;30569;51.252;9.830;2024-02-16T03:03:41;12.70;99.90
44833;DHT22;30569;51.252;9.830;2024-02-16T03:06:08;12.70;99.90
44833;DHT22;30569;51.252;9.830;2024-02-16T03:08:35;12.60;99.90
44833;DHT22;30569;51.252;9.830;2024-02-16T03:11:00;12.60;99.90
44833;DHT22;30569;51.252;9.830;2024-02-16T03:13:26;12.60;99.90
44833;DHT22;30569;51.252;9.830;2024-02-16T03:15:52;12.60;99.90
44833;DHT22;30569;51.252;9.830;2024-02-16T03:18:18;12.60;99.90
44833;DHT22;30569;51.252;9.830;2024-02-16T03:20:45;12.40;99.90
44833;DHT22;30569;51.252;9.830;2024-02-16T03:23:13;12.50;99.90
44833;DHT22;30569;51.252;9.830;2024-02-16T03:25:39;12.60;99.90
44833;DHT22;30569;51.252;9.830;2024-02-16T03:28:05;12.70;99.90
44833;DHT22;30569;51.252;9.830;2024-02-16T03:30:31;12.60;99.90
44833;DHT22;30569;51.252;9.830;2024-02-16T03:32:56;12.60;99.90
44833;DHT22;30569;51.252;9.830;2024-02-16T03:35:22;12.50;99.90
44833;DHT22;30569;51.252;9.830;2024-02-16T03:37:47;12.50;99.90
44833;DHT22;30569;51.252;9.830;2024-02-16T03:40:13;12.30;99.90
44833;DHT22;30569;51.252;9.830;2024-02-16T03:42:39;12.50;99.90
44833;DHT22;30569;51.252;9.830;2024-02-16T03:45:06;12.40;99.90
44833;DHT22;30569;51.252;9.830;2024-02-16T03:47:32;12.50;99.90
44833;DHT22;30569;51.252;9.830;2024-02-16T03:49:58;12.40;99.90
44833;DHT22;30569;51.252;9.830;2024-02-16T03:52:23;12.30;99.90
44833;DHT22;30569;51.252;9.830;2024-02-16T03:54:50;12.40;99.90
44833;DHT22;30569;51.252;9.830;2024-02-16T03:59:43;12.10;99.90
44833;DHT22;30569;51.252;9.830;2024-02-16T04:02:09;12.20;99.90
44833;DHT22;30569;51.252;9.830;2024-02-16T04:04:35;12.30;99.90
44833;DHT22;30569;51.252;9.830;2024-02-16T04:07:01;12.50;99.90
44833;DHT22;30569;51.252;9.830;2024-02-16T04:09:27;12.50;99.90
44833;DHT22;30569;51.252;9.830;2024-02-16T04:11:52;12.40;99.90
44833;DHT22;30569;51.252;9.830;2024-02-16T04:14:18;12.30;99.90
44833;DHT22;30569;51.252;9.830;2024-02-16T04:16:44;12.30;99.90
44833;DHT22;30569;51.252;9.830;2024-02-16T04:19:09;12.30;99.90
44833;DHT22;30569;51.252;9.830;2024-02-16T04:21:35;11.80;99.90
44833;DHT22;30569;51.252;9.830;2024-02-16T04:24:01;11.80;99.90
44833;DHT22;30569;51.252;9.830;2024-02-16T04:26:26;11.90;99.90
44833;DHT22;30569;51.252;9.830;2024-02-16T04:28:52;11.80;99.90
44833;DHT22;30569;51.252;9.830;2024-02-16T04:31:17;11.80;99.90
44833;DHT22;30569;51.252;9.830;2024-02-16T04:33:43;11.90;99.90
44833;DHT22;30569;51.252;9.830;2024-02-16T04:36:09;11.90;99.90
44833;DHT22;30569;51.252;9.830;2024-02-16T04:38:34;11.90;99.90
44833;DHT22;30569;51.252;9.830;2024-02-16T04:41:00;11.90;99.90
44833;DHT22;30569;51.252;9.830;2024-02-16T04:45:51;12.00;99.90
44833;DHT22;30569;51.252;9.830;2024-02-16T04:48:17;11.90;99.90
44833;DHT22;30569;51.252;9.830;2024-02-16T04:50:42;11.50;99.90
44833;DHT22;30569;51.252;9.830;2024-02-16T05:00:26;11.40;99.90
44833;DHT22;30569;51.252;9.830;2024-02-16T05:02:52;11.40;99.90
44833;DHT22;30569;51.252;9.830;2024-02-16T05:05:18;11.70;99.90
44833;DHT22;30569;51.252;9.830;2024-02-16T05:07:48;11.90;99.90
44833;DHT22;30569;51.252;9.830;2024-02-16T05:10:13;12.20;99.90
44833;DHT22;30569;51.252;9.830;2024-02-16T05:12:39;12.30;99.90
44833;DHT22;30569;51.252;9.830;2024-02-16T05:15:05;12.30;99.90
44833;DHT22;30569;51.252;9.830;2024-02-16T05:17:31;12.40;99.90
44833;DHT22;30569;51.252;9.830;2024-02-16T05:19:57;12.50;99.90
44833;DHT22;30569;51.252;9.830;2024-02-16T05:22:22;12.40;99.90
44833;DHT22;30569;51.252;9.830;2024-02-16T05:24:48;12.50;99.90
44833;DHT22;30569;51.252;9.830;2024-02-16T05:27:13;12.50;99.90
44833;DHT22;30569;51.252;9.830;2024-02-16T05:29:40;12.60;99.90
44833;DHT22;30569;51.252;9.830;2024-02-16T05:32:06;12.60;99.90
44833;DHT22;30569;51.252;9.830;2024-02-16T05:34:31;12.70;99.90
44833;DHT22;30569;51.252;9.830;2024-02-16T05:37:04;12.70;99.90
44833;DHT22;30569;51.252;9.830;2024-02-16T05:39:30;12.70;99.90
44833;DHT22;30569;51.252;9.830;2024-02-16T05:41:57;12.50;99.90
44833;DHT22;30569;51.252;9.830;2024-02-16T05:44:23;12.60;99.90
44833;DHT22;30569;51.252;9.830;2024-02-16T05:46:48;12.50;99.90
44833;DHT22;30569;51.252;9.830;2024-02-16T05:51:41;12.50;99.90
44833;DHT22;30569;51.252;9.830;2024-02-16T05:54:07;12.60;99.90
44833;DHT22;30569;51.252;9.830;2024-02-16T05:56:36;12.60;99.90
44833;DHT22;30569;51.252;9.830;2024-02-16T05:59:04;12.50;99.90
44833;DHT22;30569;51.252;9.830;2024-02-16T06:01:31;12.60;99.90
44833;DHT22;30569;51.252;9.830;2024-02-16T06:03:56;12.60;99.90
44833;DHT22;30569;51.252;9.830;2024-02-16T06:06:22;12.50;99.90
44833;DHT22;30569;51.252;9.830;2024-02-16T06:08:47;12.60;99.90
44833;DHT22;30569;51.252;9.830;2024-02-16T06:11:13;12.30;99.90
44833;DHT22;30569;51.252;9.830;2024-02-16T06:13:39;12.20;99.90
44833;DHT22;30569;51.252;9.830;2024-02-16T06:16:05;12.20;99.90
44833;DHT22;30569;51.252;9.830;2024-02-16T06:18:34;12.40;99.90
44833;DHT22;30569;51.252;9.830;2024-02-16T06:21:00;12.30;99.90
44833;DHT22;30569;51.252;9.830;2024-02-16T06:25:51;12.40;99.90
44833;DHT22;30569;51.252;9.830;2024-02-16T06:28:17;12.40;99.90
44833;DHT22;30569;51.252;9.830;2024-02-16T06:30:43;12.10;99.90
44833;DHT22;30569;51.252;9.830;2024-02-16T06:33:08;12.10;99.90
44833;DHT22;30569;51.252;9.830;2024-02-16T06:35:35;12.20;99.90
44833;DHT22;30569;51.252;9.830;2024-02-16T06:38:01;12.30;99.90
44833;DHT22;30569;51.252;9.830;2024-02-16T06:40:26;12.20;99.90
44833;DHT22;30569;51.252;9.830;2024-02-16T06:42:53;12.20;99.90
44833;DHT22;30569;51.252;9.830;2024-02-16T06:45:18;12.20;99.90
44833;DHT22;30569;51.252;9.830;2024-02-16T06:47:44;12.20;99.90
44833;DHT22;30569;51.252;9.830;2024-02-16T06:50:10;11.90;99.90
44833;DHT22;30569;51.252;9.830;2024-02-16T06:52:35;11.90;99.90
44833;DHT22;30569;51.252;9.830;2024-02-16T06:55:01;11.90;99.90
44833;DHT22;30569;51.252;9.830;2024-02-16T06:57:27;11.90;99.90
44833;DHT22;30569;51.252;9.830;2024-02-16T06:59:52;11.60;99.90
44833;DHT22;30569;51.252;9.830;2024-02-16T07:02:18;11.60;99.90
44833;DHT22;30569;51.252;9.830;2024-02-16T07:04:44;11.50;99.90
44833;DHT22;30569;51.252;9.830;2024-02-16T07:07:11;11.80;99.90
44833;DHT22;30569;51.252;9.830;2024-02-16T07:09:37;11.80;99.90
44833;DHT22;30569;51.252;9.830;2024-02-16T07:12:05;11.80;99.90
44833;DHT22;30569;51.252;9.830;2024-02-16T07:14:32;11.80;99.90
44833;DHT22;30569;51.252;9.830;2024-02-16T07:16:58;11.90;99.90
44833;DHT22;30569;51.252;9.830;2024-02-16T07:19:23;11.70;99.90
44833;DHT22;30569;51.252;9.830;2024-02-16T07:26:44;12.10;99.90
44833;DHT22;30569;51.252;9.830;2024-02-16T07:34:04;12.10;99.90
44833;DHT22;30569;51.252;9.830;2024-02-16T07:38:58;12.20;99.90
44833;DHT22;30569;51.252;9.830;2024-02-16T07:41:24;12.10;99.90
44833;DHT22;30569;51.252;9.830;2024-02-16T07:43:49;12.10;99.90
44833;DHT22;30569;51.252;9.830;2024-02-16T07:48:41;12.20;99.90
44833;DHT22;30569;51.252;9.830;2024-02-16T07:51:08;12.30;99.90
44833;DHT22;30569;51.252;9.830;2024-02-16T07:53:33;12.40;99.90
44833;DHT22;30569;51.252;9.830;2024-02-16T07:58:25;12.50;99.90
44833;DHT22;30569;51.252;9.830;2024-02-16T08:13:02;12.00;99.90
44833;DHT22;30569;51.252;9.830;2024-02-16T08:17:54;12.50;99.90
44833;DHT22;30569;51.252;9.830;2024-02-16T08:20:20;12.70;99.90
44833;DHT22;30569;51.252;9.830;2024-02-16T08:30:05;12.40;99.90
44833;DHT22;30569;51.252;9.830;2024-02-16T08:39:51;12.80;99.90
44833;DHT22;30569;51.252;9.830;2024-02-16T08:42:16;12.70;99.90
44833;DHT22;30569;51.252;9.830;2024-02-16T08:44:42;12.90;99.90
44833;DHT22;30569;51.252;9.830;2024-02-16T08:47:08;13.10;99.90
44833;DHT22;30569;51.252;9.830;2024-02-16T08:56:55;13.90;99.90
44833;DHT22;30569;51.252;9.830;2024-02-16T09:01:47;14.70;99.90
44833;DHT22;30569;51.252;9.830;2024-02-16T09:04:13;15.00;99.90
44833;DHT22;30569;51.252;9.830;2024-02-16T09:06:38;15.20;99.90
44833;DHT22;30569;51.252;9.830;2024-02-16T09:13:59;15.90;99.90
44833;DHT22;30569;51.252;9.830;2024-02-16T09:16:25;16.10;99.90
44833;DHT22;30569;51.252;9.830;2024-02-16T09:21:17;16.40;99.90
44833;DHT22;30569;51.252;9.830;2024-02-16T09:23:43;16.30;99.40
44833;DHT22;30569;51.252;9.830;2024-02-16T09:26:08;15.50;99.90
44833;DHT22;30569;51.252;9.830;2024-02-16T09:28:39;15.60;99.90
44833;DHT22;30569;51.252;9.830;2024-02-16T09:33:32;15.40;99.90
44833;DHT22;30569;51.252;9.830;2024-02-16T09:35:58;15.10;99.90
44833;DHT22;30569;51.252;9.830;2024-02-16T09:38:24;15.20;99.90
44833;DHT22;30569;51.252;9.830;2024-02-16T09:40:50;14.40;99.90
44833;DHT22;30569;51.252;9.830;2024-02-16T09:43:24;14.30;99.90
44833;DHT22;30569;51.252;9.830;2024-02-16T09:45:55;14.20;99.90
44833;DHT22;30569;51.252;9.830;2024-02-16T09:50:51;13.30;99.90
44833;DHT22;30569;51.252;9.830;2024-02-16T09:53:19;13.30;99.90
44833;DHT22;30569;51.252;9.830;2024-02-16T09:55:48;13.30;99.90
44833;DHT22;30569;51.252;9.830;2024-02-16T10:00:48;13.30;99.90
44833;DHT22;30569;51.252;9.830;2024-02-16T10:03:27;13.30;99.90
44833;DHT22;30569;51.252;9.830;2024-02-16T10:06:03;13.50;99.90
44833;DHT22;30569;51.252;9.830;2024-02-16T10:08:30;13.80;99.90
44833;DHT22;30569;51.252;9.830;2024-02-16T10:11:05;14.20;99.90
44833;DHT22;30569;51.252;9.830;2024-02-16T10:13:31;14.50;99.90
44833;DHT22;30569;51.252;9.830;2024-02-16T10:16:07;14.80;99.90
44833;DHT22;30569;51.252;9.830;2024-02-16T10:18:35;14.60;99.90
44833;DHT22;30569;51.252;9.830;2024-02-16T10:25:54;15.50;99.90
44833;DHT22;30569;51.252;9.830;2024-02-16T10:30:57;14.90;99.90
44833;DHT22;30569;51.252;9.830;2024-02-16T10:33:24;14.80;99.90
44833;DHT22;30569;51.252;9.830;2024-02-16T10:35:50;14.60;99.90
44833;DHT22;30569;51.252;9.830;2024-02-16T10:38:17;14.60;99.90
44833;DHT22;30569;51.252;9.830;2024-02-16T10:43:11;14.60;99.90
44833;DHT22;30569;51.252;9.830;2024-02-16T10:45:39;14.50;99.90
44833;DHT22;30569;51.252;9.830;2024-02-16T10:48:06;14.50;99.90
44833;DHT22;30569;51.252;9.830;2024-02-16T10:50:34;14.60;99.90
44833;DHT22;30569;51.252;9.830;2024-02-16T10:53:05;14.80;99.90
44833;DHT22;30569;51.252;9.830;2024-02-16T10:55:34;15.20;99.90
44833;DHT22;30569;51.252;9.830;2024-02-16T10:58:00;15.50;99.90
44833;DHT22;30569;51.252;9.830;2024-02-16T11:05:35;15.50;99.90
44833;DHT22;30569;51.252;9.830;2024-02-16T11:08:04;15.40;99.90
44833;DHT22;30569;51.252;9.830;2024-02-16T11:10:31;15.30;99.90
44833;DHT22;30569;51.252;9.830;2024-02-16T11:13:03;15.30;99.90
44833;DHT22;30569;51.252;9.830;2024-02-16T11:15:34;15.20;99.90
44833;DHT22;30569;51.252;9.830;2024-02-16T11:18:04;15.00;99.90
44833;DHT22;30569;51.252;9.830;2024-02-16T11:20:36;15.00;99.90
44833;DHT22;30569;51.252;9.830;2024-02-16T11:23:08;14.80;99.90
44833;DHT22;30569;51.252;9.830;2024-02-16T11:25:34;14.70;99.90
44833;DHT22;30569;51.252;9.830;2024-02-16T11:28:02;14.70;99.90
44833;DHT22;30569;51.252;9.830;2024-02-16T11:30:28;14.60;99.90
44833;DHT22;30569;51.252;9.830;2024-02-16T11:37:46;14.30;99.90
44833;DHT22;30569;51.252;9.830;2024-02-16T11:40:12;14.20;99.90
44833;DHT22;30569;51.252;9.830;2024-02-16T11:45:04;14.20;99.90
44833;DHT22;30569;51.252;9.830;2024-02-16T11:47:31;14.40;99.90
44833;DHT22;30569;51.252;9.830;2024-02-16T11:50:08;15.00;99.90
44833;DHT22;30569;51.252;9.830;2024-02-16T11:55:02;15.00;99.90
44833;DHT22;30569;51.252;9.830;2024-02-16T11:59:55;15.10;99.90
44833;DHT22;30569;51.252;9.830;2024-02-16T12:04:47;15.20;99.90
44833;DHT22;30569;51.252;9.830;2024-02-16T12:07:13;15.10;99.90
44833;DHT22;30569;51.252;9.830;2024-02-16T12:09:41;15.40;99.90
44833;DHT22;30569;51.252;9.830;2024-02-16T12:12:07;15.40;99.90
44833;DHT22;30569;51.252;9.830;2024-02-16T12:14:32;15.50;99.90
44833;DHT22;30569;51.252;9.830;2024-02-16T12:16:58;15.80;99.90
44833;DHT22;30569;51.252;9.830;2024-02-16T12:19:25;16.10;99.90
44833;DHT22;30569;51.252;9.830;2024-02-16T12:21:55;16.10;99.90
44833;DHT22;30569;51.252;9.830;2024-02-16T12:24:23;16.20;99.90
44833;DHT22;30569;51.252;9.830;2024-02-16T12:31:43;16.00;99.90
44833;DHT22;30569;51.252;9.830;2024-02-16T12:36:36;16.10;99.90
44833;DHT22;30569;51.252;9.830;2024-02-16T12:39:03;16.10;99.90
44833;DHT22;30569;51.252;9.830;2024-02-16T12:41:33;16.20;99.90
44833;DHT22;30569;51.252;9.830;2024-02-16T12:43:59;16.00;99.90
44833;DHT22;30569;51.252;9.830;2024-02-16T12:46:25;15.80;99.90
44833;DHT22;30569;51.252;9.830;2024-02-16T12:53:43;15.80;99.90
44833;DHT22;30569;51.252;9.830;2024-02-16T12:56:10;15.90;99.90
44833;DHT22;30569;51.252;9.830;2024-02-16T12:58:36;15.90;99.90
44833;DHT22;30569;51.252;9.830;2024-02-16T13:01:05;16.00;99.90
44833;DHT22;30569;51.252;9.830;2024-02-16T13:03:33;16.00;99.90
44833;DHT22;30569;51.252;9.830;2024-02-16T13:05:59;16.00;99.90
44833;DHT22;30569;51.252;9.830;2024-02-16T13:08:25;16.30;99.90
44833;DHT22;30569;51.252;9.830;2024-02-16T13:10:51;16.40;99.90
44833;DHT22;30569;51.252;9.830;2024-02-16T13:13:16;16.50;99.90
44833;DHT22;30569;51.252;9.830;2024-02-16T13:15:42;16.80;99.90
44833;DHT22;30569;51.252;9.830;2024-02-16T13:18:07;16.70;99.60
44833;DHT22;30569;51.252;9.830;2024-02-16T13:20:33;16.30;99.90
44833;DHT22;30569;51.252;9.830;2024-02-16T13:23:00;16.30;99.90
44833;DHT22;30569;51.252;9.830;2024-02-16T13:28:23;16.60;99.90
44833;DHT22;30569;51.252;9.830;2024-02-16T13:33:15;16.80;99.20
44833;DHT22;30569;51.252;9.830;2024-02-16T13:35:40;16.60;99.00
44833;DHT22;30569;51.252;9.830;2024-02-16T13:38:06;16.50;99.50
44833;DHT22;30569;51.252;9.830;2024-02-16T13:40:32;16.60;99.40
44833;DHT22;30569;51.252;9.830;2024-02-16T13:42:59;16.50;99.90
44833;DHT22;30569;51.252;9.830;2024-02-16T13:45:28;16.50;99.90
44833;DHT22;30569;51.252;9.830;2024-02-16T13:47:56;16.30;99.90
44833;DHT22;30569;51.252;9.830;2024-02-16T13:50:22;16.60;99.90
44833;DHT22;30569;51.252;9.830;2024-02-16T13:52:48;16.80;99.90
44833;DHT22;30569;51.252;9.830;2024-02-16T13:55:15;16.40;99.90
44833;DHT22;30569;51.252;9.830;2024-02-16T13:57:40;16.40;99.90
44833;DHT22;30569;51.252;9.830;2024-02-16T14:00:06;15.80;99.90
44833;DHT22;30569;51.252;9.830;2024-02-16T14:04:58;15.70;99.90
44833;DHT22;30569;51.252;9.830;2024-02-16T14:07:24;15.90;99.90
44833;DHT22;30569;51.252;9.830;2024-02-16T14:09:49;16.00;99.90
44833;DHT22;30569;51.252;9.830;2024-02-16T14:12:15;15.90;99.90
44833;DHT22;30569;51.252;9.830;2024-02-16T14:14:41;16.10;99.90
44833;DHT22;30569;51.252;9.830;2024-02-16T14:17:06;16.30;99.90
44833;DHT22;30569;51.252;9.830;2024-02-16T14:19:32;16.50;99.90
44833;DHT22;30569;51.252;9.830;2024-02-16T14:22:00;16.50;99.90
44833;DHT22;30569;51.252;9.830;2024-02-16T14:24:25;16.40;99.90
44833;DHT22;30569;51.252;9.830;2024-02-16T14:26:51;15.60;99.90
44833;DHT22;30569;51.252;9.830;2024-02-16T14:29:18;14.90;99.90
44833;DHT22;30569;51.252;9.830;2024-02-16T14:31:43;14.80;99.90
44833;DHT22;30569;51.252;9.830;2024-02-16T14:34:09;14.50;99.90
44833;DHT22;30569;51.252;9.830;2024-02-16T14:36:34;14.40;99.90
44833;DHT22;30569;51.252;9.830;2024-02-16T14:39:00;14.30;99.90
44833;DHT22;30569;51.252;9.830;2024-02-16T14:41:26;14.20;99.90
44833;DHT22;30569;51.252;9.830;2024-02-16T14:43:53;14.20;99.90
44833;DHT22;30569;51.252;9.830;2024-02-16T14:46:18;14.20;99.90
44833;DHT22;30569;51.252;9.830;2024-02-16T14:48:45;14.00;99.90
44833;DHT22;30569;51.252;9.830;2024-02-16T14:51:12;14.00;99.90
44833;DHT22;30569;51.252;9.830;2024-02-16T14:53:38;14.00;99.90
44833;DHT22;30569;51.252;9.830;2024-02-16T14:56:03;14.10;99.90
44833;DHT22;30569;51.252;9.830;2024-02-16T14:58:29;14.20;99.90
44833;DHT22;30569;51.252;9.830;2024-02-16T15:00:55;14.10;99.90
44833;DHT22;30569;51.252;9.830;2024-02-16T15:03:22;13.80;99.90
44833;DHT22;30569;51.252;9.830;2024-02-16T15:05:48;13.80;99.90
44833;DHT22;30569;51.252;9.830;2024-02-16T15:08:13;13.60;99.90
44833;DHT22;30569;51.252;9.830;2024-02-16T15:10:39;13.50;99.90
44833;DHT22;30569;51.252;9.830;2024-02-16T15:13:05;13.60;99.90
44833;DHT22;30569;51.252;9.830;2024-02-16T15:15:30;13.40;99.90
44833;DHT22;30569;51.252;9.830;2024-02-16T15:17:56;13.40;99.90
44833;DHT22;30569;51.252;9.830;2024-02-16T15:20:25;13.40;99.90
44833;DHT22;30569;51.252;9.830;2024-02-16T15:22:53;13.50;99.90
44833;DHT22;30569;51.252;9.830;2024-02-16T15:25:22;13.40;99.90
44833;DHT22;30569;51.252;9.830;2024-02-16T15:27:48;13.30;99.90
44833;DHT22;30569;51.252;9.830;2024-02-16T15:30:15;13.10;99.90
44833;DHT22;30569;51.252;9.830;2024-02-16T15:32:40;13.10;99.90
44833;DHT22;30569;51.252;9.830;2024-02-16T15:35:06;13.10;99.90
44833;DHT22;30569;51.252;9.830;2024-02-16T15:37:34;13.00;99.90
44833;DHT22;30569;51.252;9.830;2024-02-16T15:40:00;12.70;99.90
44833;DHT22;30569;51.252;9.830;2024-02-16T15:42:28;12.70;99.90
44833;DHT22;30569;51.252;9.830;2024-02-16T15:44:55;12.60;99.90
44833;DHT22;30569;51.252;9.830;2024-02-16T15:47:20;12.60;99.90
44833;DHT22;30569;51.252;9.830;2024-02-16T15:49:46;12.50;99.90
44833;DHT22;30569;51.252;9.830;2024-02-16T15:52:11;12.60;99.90
44833;DHT22;30569;51.252;9.830;2024-02-16T15:54:37;12.50;99.90
44833;DHT22;30569;51.252;9.830;2024-02-16T15:57:04;12.50;99.90
44833;DHT22;30569;51.252;9.830;2024-02-16T15:59:30;12.50;99.90
44833;DHT22;30569;51.252;9.830;2024-02-16T16:01:55;12.50;99.90
44833;DHT22;30569;51.252;9.830;2024-02-16T16:04:21;12.70;99.90
44833;DHT22;30569;51.252;9.830;2024-02-16T16:06:47;12.60;99.90
44833;DHT22;30569;51.252;9.830;2024-02-16T16:09:12;12.60;99.90
44833;DHT22;30569;51.252;9.830;2024-02-16T16:11:38;12.60;99.90
44833;DHT22;30569;51.252;9.830;2024-02-16T16:14:03;12.70;99.90
44833;DHT22;30569;51.252;9.830;2024-02-16T16:16:29;12.50;99.90
44833;DHT22;30569;51.252;9.830;2024-02-16T16:18:55;12.50;99.90
44833;DHT22;30569;51.252;9.830;2024-02-16T16:21:24;12.50;99.90
44833;DHT22;30569;51.252;9.830;2024-02-16T16:23:49;12.60;99.90
44833;DHT22;30569;51.252;9.830;2024-02-16T16:26:15;12.70;99.90
44833;DHT22;30569;51.252;9.830;2024-02-16T16:28:41;12.80;99.90
44833;DHT22;30569;51.252;9.830;2024-02-16T16:31:06;12.70;99.90
44833;DHT22;30569;51.252;9.830;2024-02-16T16:33:34;12.60;99.90
44833;DHT22;30569;51.252;9.830;2024-02-16T16:35:59;12.60;99.90
44833;DHT22;30569;51.252;9.830;2024-02-16T16:38:28;12.60;99.90
44833;DHT22;30569;51.252;9.830;2024-02-16T16:40:54;12.70;99.90
44833;DHT22;30569;51.252;9.830;2024-02-16T16:43:20;12.80;99.90
44833;DHT22;30569;51.252;9.830;2024-02-16T16:45:46;12.90;99.90
44833;DHT22;30569;51.252;9.830;2024-02-16T16:48:11;13.10;99.90
44833;DHT22;30569;51.252;9.830;2024-02-16T16:50:37;13.10;99.90
44833;DHT22;30569;51.252;9.830;2024-02-16T16:53:05;13.10;99.90
44833;DHT22;30569;51.252;9.830;2024-02-16T16:55:31;12.70;99.90
44833;DHT22;30569;51.252;9.830;2024-02-16T16:57:57;12.60;99.90
44833;DHT22;30569;51.252;9.830;2024-02-16T17:00:22;12.60;99.90
44833;DHT22;30569;51.252;9.830;2024-02-16T17:02:49;12.60;99.90
44833;DHT22;30569;51.252;9.830;2024-02-16T17:05:14;12.60;99.90
44833;DHT22;30569;51.252;9.830;2024-02-16T17:07:40;12.70;99.90
44833;DHT22;30569;51.252;9.830;2024-02-16T17:10:06;12.70;99.90
44833;DHT22;30569;51.252;9.830;2024-02-16T17:12:33;12.70;99.90
44833;DHT22;30569;51.252;9.830;2024-02-16T17:14:59;12.80;99.90
44833;DHT22;30569;51.252;9.830;2024-02-16T17:17:25;13.10;99.90
44833;DHT22;30569;51.252;9.830;2024-02-16T17:19:50;13.50;99.90
44833;DHT22;30569;51.252;9.830;2024-02-16T17:22:16;13.50;99.90
44833;DHT22;30569;51.252;9.830;2024-02-16T17:24:42;13.80;99.90
44833;DHT22;30569;51.252;9.830;2024-02-16T17:27:07;13.70;99.90
44833;DHT22;30569;51.252;9.830;2024-02-16T17:29:33;13.60;99.90
44833;DHT22;30569;51.252;9.830;2024-02-16T17:31:59;13.50;99.90
44833;DHT22;30569;51.252;9.830;2024-02-16T17:34:25;13.30;99.90
44833;DHT22;30569;51.252;9.830;2024-02-16T17:36:51;13.10;99.90
44833;DHT22;30569;51.252;9.830;2024-02-16T17:39:17;13.00;99.90
44833;DHT22;30569;51.252;9.830;2024-02-16T17:41:43;13.10;99.90
44833;DHT22;30569;51.252;9.830;2024-02-16T17:44:09;12.90;99.90
44833;DHT22;30569;51.252;9.830;2024-02-16T17:46:35;12.90;99.90
44833;DHT22;30569;51.252;9.830;2024-02-16T17:49:01;12.90;99.90
44833;DHT22;30569;51.252;9.830;2024-02-16T17:51:26;12.90;99.90
44833;DHT22;30569;51.252;9.830;2024-02-16T17:53:52;12.80;99.90